x

Rock Of Ages, Mi (roam4) Weather Station

5:00pm - Thu 17th Aug 2017 All times are CDT. -5 hours from GMT.

  • Wind
    25mph, 29mph gusts
  • Air Temp 58°f
  • Sea Pressure 1003.9mb
  • Rock Of Ages, Mi
  • Rock Of Ages, Mi

More Historic Weather Station data

Upgrade to MSW Pro to gain access to the past 30 days of data for over 8000 Wavebouys and Weather Stations around the globe.

Join

Comparision Forecast

View Surf forecast
   
Thu 08/17 5:00pm 25 29 mph 1003.9mb 58f
4:00pm 31 33 mph 1003.1mb 58f
3:00pm 26 29 mph 1003.6mb 58f
2:00pm 24 26 mph 1003.9mb 59f
1:00pm 17 18 mph 1004.2mb 60f
12:00pm 25 28 mph 1004.8mb 59f
11:00am 26 28 mph 1004.9mb 60f
10:00am 24 26 mph 1006.3mb 60f
9:00am 23 24 mph 1006.5mb 60f
8:00am 22 24 mph 1007.4mb 60f
7:00am 14 14 mph 1009.1mb 60f
6:00am 22 23 mph 1008.9mb 60f
5:00am 23 24 mph 1009.3mb 60f
4:00am 18 18 mph 1010.1mb 60f
3:00am 10 11 mph 1011mb 60f
2:00am 13 14 mph 1011.5mb 61f
1:00am 11 11 mph 1012.5mb 61f
12:00am 9 10 mph 1013.6mb 61f
Wed 08/16 11:00pm 10 11 mph 1014.1mb 60f
10:00pm 16 18 mph 1014.3mb 59f
9:00pm 14 17 mph 1014.9mb 58f
8:00pm 15 15 mph 1015.3mb 58f
7:00pm 13 14 mph 1015.3mb 62f
6:00pm 11 13 mph 1015.8mb 64f
5:00pm 9 10 mph 1016.4mb 66f
4:00pm 10 11 mph 1016.4mb 69f
3:00pm 15 16 mph 1016.7mb 68f
2:00pm 2 5 mph 1017.9mb 70f
1:00pm 15 16 mph 1018.2mb 65f
12:00pm 7 8 mph 1018.9mb 64f
11:00am 15 15 mph 1018.7mb 63f
10:00am 13 14 mph 1018.8mb 61f
9:00am 14 14 mph 1019.2mb 62f
8:00am 8 8 mph 1020.3mb 61f
7:00am 5 6 mph 1020.2mb 59f
6:00am 6 8 mph 1019.8mb 57f
5:00am 5 6 mph 1019.7mb 57f
4:00am 6 7 mph 1019.8mb 56f
3:00am 5 5 mph 1019.7mb 55f
2:00am 5 5 mph 1019.4mb 56f
1:00am 6 7 mph 1019.3mb 58f
12:00am 3 5 mph 1018.8mb 57f
Tue 08/15 11:00pm 1 2 mph 1018.5mb 57f
10:00pm 6 6 mph 1018.8mb 57f
9:00pm 3 3 mph 1018.9mb 57f
8:00pm 6 6 mph 1018.9mb 58f
7:00pm 6 6 mph 1018.6mb 63f
6:00pm 6 7 mph 1018.2mb 63f
5:00pm 8 9 mph 1018.1mb 61f
4:00pm 10 10 mph 1018.3mb 62f
3:00pm 10 10 mph 1018.3mb 64f
2:00pm 8 9 mph 1018.1mb 64f
1:00pm 6 7 mph 1018.4mb 65f
12:00pm 10 10 mph 1018.5mb 62f
11:00am 13 14 mph 1017.9mb 63f
10:00am 14 15 mph 1017.5mb 64f
9:00am 15 16 mph 1016.6mb 63f
8:00am 15 16 mph 1016.3mb 63f
7:00am 14 15 mph 1016.6mb 62f
6:00am 16 18 mph 1015.8mb 60f
5:00am 20 20 mph 1014.8mb 60f
4:00am 16 17 mph 1014.7mb 60f
3:00am 20 21 mph 1013.9mb 60f
2:00am 14 15 mph 1013.4mb 61f
1:00am 14 15 mph 1013.4mb 61f
12:00am 11 11 mph 1013.3mb 61f
Mon 08/14 11:00pm 13 14 mph 1012.9mb 62f
10:00pm 15 15 mph 1012.7mb 60f
9:00pm 14 15 mph 1012.7mb 61f
8:00pm 10 10 mph 1012.5mb 61f
6:00pm 10 10 mph 1012mb 62f
5:00pm 13 13 mph 1012.5mb 62f
4:00pm 16 16 mph 1012.1mb 65f
3:00pm 14 14 mph 1012.4mb 66f
2:00pm 8 8 mph 1013.1mb 64f
1:00pm 10 10 mph 1013.4mb 64f
12:00pm 5 6 mph 1013.4mb 63f
11:00am 2 2 mph 1013.4mb 62f
10:00am 7 7 mph 1013.4mb 65f
9:00am 10 10 mph 1013.1mb 64f
8:00am 7 8 mph 1013.6mb 63f
7:00am 1 3 mph 1013.7mb 63f
6:00am 8 8 mph 1013.4mb 67f
5:00am 14 14 mph 1013.7mb 65f
4:00am 16 17 mph 1013.6mb 64f
3:00am 10 11 mph 1014.2mb 67f
2:00am 8 8 mph 1014.1mb 65f
1:00am 14 15 mph 1014.1mb 68f
12:00am 14 14 mph 1014.2mb 69f